Peshawbestown, Michigan
Current Conditions -  °F | °C
As of 9:53 AM on Thursday 30 Oct 2014 (Local Time) from KTVC Reporting Station
Overcast Overcast  
Wind Chill: 43°   Ceiling: 3800
Heat Index: 43°   Visibility: 10mi
Dew Point: 37°   Wind: 3mph
Humidity: 80%   Direction: 160°SSE
Pressure: 30.07"   Gusts: NA
Location:  44.9784°N, 85.6488°W
Report Text: KTVC 301353Z 16003KT 10SM OVC038 06/03 A3007 RMK AO2 SLP188 T00610028
Loading
Personal Weather Stations






























Interactive Weather Map
Tropical Storm Tracking
New forecast layout! Learn more

10-Day Weather Forecast

Advertisements
Track Severe Weather on mobile